Time;durP1;ratioP1;P1;durP2;ratioP2;P2;SDS_P1;SDS_P2;PMS_P1;PMS_P2;Temp;Humidity;BMP_temperature;BMP_pressure;BME280_temperature;BME280_humidity;BME280_pressure;Samples;Min_cycle;Max_cycle;Signal;HPM_P1;HPM_P2
2023/09/06 00:00:43;;;;;;;3.83;1.73;;;18.00;99.90;;;;;;5038763;28;20044;-53
2023/09/06 00:03:10;;;;;;;3.67;1.70;;;18.00;99.90;;;;;;5038668;28;20037;-53
2023/09/06 00:05:36;;;;;;;4.20;1.92;;;17.90;99.90;;;;;;5038283;28;20083;-55
2023/09/06 00:08:03;;;;;;;3.55;1.48;;;17.90;99.90;;;;;;5038190;28;20037;-55
2023/09/06 00:10:28;;;;;;;2.78;1.50;;;17.90;99.90;;;;;;5038904;28;20414;-56
2023/09/06 00:12:54;;;;;;;6.22;1.90;;;17.90;99.90;;;;;;5037616;28;20312;-54
2023/09/06 00:15:19;;;;;;;4.00;1.80;;;17.80;99.90;;;;;;5037352;28;20037;-54
2023/09/06 00:17:45;;;;;;;3.40;1.65;;;17.80;99.90;;;;;;5037934;28;20037;-53
2023/09/06 00:20:21;;;;;;;4.00;1.90;;;17.80;99.90;;;;;;5035655;28;20060;-53
2023/09/06 00:23:01;;;;;;;3.95;1.58;;;17.80;99.90;;;;;;5035818;28;20532;-54
2023/09/06 00:25:30;;;;;;;4.80;1.90;;;17.80;99.90;;;;;;5035847;28;20040;-53
2023/09/06 00:27:57;;;;;;;4.75;1.85;;;17.80;99.90;;;;;;5018009;28;20030;-55
2023/09/06 00:30:23;;;;;;;4.22;1.70;;;17.70;99.90;;;;;;5017537;28;20060;-54
2023/09/06 00:32:52;;;;;;;3.05;1.60;;;17.70;99.90;;;;;;5034912;28;20072;-54
2023/09/06 00:35:24;;;;;;;3.95;1.52;;;17.60;99.90;;;;;;5018101;28;20037;-52
2023/09/06 00:37:50;;;;;;;4.43;1.70;;;17.50;99.90;;;;;;5035818;28;20069;-55
2023/09/06 00:40:21;;;;;;;3.38;1.45;;;17.50;99.90;;;;;;5035122;28;20044;-54
2023/09/06 00:42:59;;;;;;;2.67;1.50;;;17.40;99.90;;;;;;5020806;28;20124;-54
2023/09/06 00:45:36;;;;;;;3.03;1.65;;;17.30;99.90;;;;;;5020286;28;20087;-51
2023/09/06 00:48:05;;;;;;;3.83;1.60;;;17.30;99.90;;;;;;5037794;28;20022;-54
2023/09/06 00:50:33;;;;;;;4.32;1.70;;;17.20;99.90;;;;;;5036985;28;20060;-54
2023/09/06 00:52:59;;;;;;;5.35;1.98;;;17.20;99.90;;;;;;5036746;28;20075;-52
2023/09/06 00:55:25;;;;;;;2.42;1.25;;;17.20;99.90;;;;;;5003182;28;20119;-52
2023/09/06 00:57:52;;;;;;;3.75;1.63;;;17.10;99.90;;;;;;5037447;28;20025;-54
2023/09/06 01:00:19;;;;;;;3.45;1.50;;;17.10;99.90;;;;;;5018669;28;20124;-55
2023/09/06 01:02:49;;;;;;;3.72;2.22;;;17.00;99.90;;;;;;5018842;28;20065;-55
2023/09/06 01:05:16;;;;;;;3.42;1.73;;;17.00;99.90;;;;;;5036570;28;20041;-55
2023/09/06 01:07:45;;;;;;;5.10;1.42;;;17.00;99.90;;;;;;5036646;28;20025;-55
2023/09/06 01:10:11;;;;;;;5.43;1.60;;;16.90;99.90;;;;;;5019206;28;20030;-56
2023/09/06 01:12:37;;;;;;;4.25;1.50;;;16.90;99.90;;;;;;5036695;28;20573;-54
2023/09/06 01:15:04;;;;;;;3.53;1.45;;;16.90;99.90;;;;;;5019177;28;20030;-55
2023/09/06 01:17:33;;;;;;;3.55;1.50;;;16.80;99.90;;;;;;5037303;28;20109;-54
2023/09/06 01:20:25;;;;;;;;;;;16.80;99.90;;;;;;5020026;28;20041;-55
2023/09/06 01:23:25;;;;;;;3.65;1.55;;;16.80;99.90;;;;;;5015623;28;20183;-54
2023/09/06 01:25:51;;;;;;;2.92;1.38;;;16.70;99.90;;;;;;5017688;28;20068;-54
2023/09/06 01:28:17;;;;;;;4.25;1.58;;;16.70;99.90;;;;;;5019237;28;20025;-52
2023/09/06 01:30:43;;;;;;;2.35;1.35;;;16.70;99.90;;;;;;5018836;28;20025;-53
2023/09/06 01:33:08;;;;;;;3.38;1.40;;;16.70;99.90;;;;;;5019472;28;20041;-52
2023/09/06 01:35:34;;;;;;;2.67;1.30;;;16.60;99.90;;;;;;5019398;28;20041;-54
2023/09/06 01:38:00;;;;;;;2.35;1.48;;;16.60;99.90;;;;;;5036806;28;20164;-50
2023/09/06 01:40:28;;;;;;;3.75;1.60;;;16.60;99.90;;;;;;5036892;28;20037;-50
2023/09/06 01:42:54;;;;;;;3.58;1.65;;;16.50;99.90;;;;;;5036614;28;20026;-53
2023/09/06 01:45:20;;;;;;;3.08;1.40;;;16.50;99.90;;;;;;5036970;28;20025;-51
2023/09/06 01:47:49;;;;;;;5.07;1.70;;;16.50;99.90;;;;;;5036446;28;20029;-54
2023/09/06 01:50:19;;;;;;;3.00;1.52;;;16.40;99.90;;;;;;5018905;28;20022;-54
2023/09/06 01:52:48;;;;;;;2.97;1.55;;;16.40;99.90;;;;;;5036164;28;20072;-55
2023/09/06 01:55:14;;;;;;;5.00;1.90;;;16.30;99.90;;;;;;5036657;28;20681;-55
2023/09/06 01:57:39;;;;;;;4.25;1.90;;;16.30;99.90;;;;;;5018427;28;20132;-55
2023/09/06 02:00:18;;;;;;;3.75;1.58;;;16.30;99.90;;;;;;5018737;28;20033;-55
2023/09/06 02:02:45;;;;;;;3.78;1.48;;;16.20;99.90;;;;;;5036127;28;20029;-54
2023/09/06 02:05:10;;;;;;;2.30;1.30;;;16.20;99.90;;;;;;5018818;28;20030;-54
2023/09/06 02:07:36;;;;;;;3.45;1.30;;;16.20;99.90;;;;;;5018221;28;20037;-55
2023/09/06 02:10:03;;;;;;;3.08;1.50;;;16.10;99.90;;;;;;5036120;28;20033;-50
2023/09/06 02:12:29;;;;;;;6.15;1.77;;;16.10;99.90;;;;;;5036313;28;20230;-54
2023/09/06 02:14:56;;;;;;;4.28;1.67;;;16.20;99.90;;;;;;5017745;28;20041;-53
2023/09/06 02:17:26;;;;;;;2.78;1.70;;;16.20;99.90;;;;;;5001730;28;20029;-55
2023/09/06 02:19:52;;;;;;;4.47;1.52;;;16.20;99.90;;;;;;5018032;28;20033;-55
2023/09/06 02:22:18;;;;;;;2.85;1.55;;;16.10;99.90;;;;;;5002287;28;20033;-51
2023/09/06 02:24:44;;;;;;;2.10;1.42;;;16.10;99.90;;;;;;5036002;28;20033;-53
2023/09/06 02:27:12;;;;;;;3.05;1.60;;;16.10;99.90;;;;;;5036073;28;20026;-52
2023/09/06 02:29:39;;;;;;;2.65;1.42;;;16.10;99.90;;;;;;5017978;28;20036;-54
2023/09/06 02:32:05;;;;;;;2.97;1.67;;;16.10;99.90;;;;;;5035739;28;20048;-53
2023/09/06 02:34:30;;;;;;;3.00;1.60;;;16.00;99.90;;;;;;5017676;28;20037;-55
2023/09/06 02:36:56;;;;;;;3.13;1.65;;;16.00;99.90;;;;;;5017922;28;20069;-55
2023/09/06 02:39:24;;;;;;;2.97;1.42;;;16.00;99.90;;;;;;5035616;28;20052;-54
2023/09/06 02:41:50;;;;;;;3.05;1.85;;;15.90;99.90;;;;;;5018447;28;20432;-54
2023/09/06 02:44:16;;;;;;;3.78;1.73;;;15.90;99.90;;;;;;5018429;28;20033;-49
2023/09/06 02:46:41;;;;;;;3.20;1.55;;;15.90;99.90;;;;;;5036205;28;20021;-54
2023/09/06 02:49:12;;;;;;;3.22;1.80;;;15.90;99.90;;;;;;5018179;28;20486;-53
2023/09/06 02:51:43;;;;;;;3.88;1.70;;;15.90;99.90;;;;;;5017550;28;20037;-52
2023/09/06 02:54:10;;;;;;;2.55;1.52;;;15.90;99.90;;;;;;5018369;28;20030;-54
2023/09/06 02:56:38;;;;;;;5.65;1.65;;;15.90;99.90;;;;;;5018357;28;20037;-50
2023/09/06 02:59:07;;;;;;;4.28;1.63;;;15.80;99.90;;;;;;5017787;28;20065;-52
2023/09/06 03:01:35;;;;;;;3.72;1.60;;;15.80;99.90;;;;;;5018143;28;20481;-54
2023/09/06 03:04:06;;;;;;;2.35;1.40;;;15.80;99.90;;;;;;5018182;28;20033;-52
2023/09/06 03:06:33;;;;;;;3.70;1.70;;;15.80;99.90;;;;;;5017853;28;20025;-54
2023/09/06 03:09:00;;;;;;;2.45;1.45;;;15.80;99.90;;;;;;5002575;28;20036;-55
2023/09/06 03:11:26;;;;;;;3.15;1.60;;;15.80;99.90;;;;;;5018066;28;20033;-55
2023/09/06 03:13:57;;;;;;;2.83;1.48;;;15.90;99.90;;;;;;5002349;28;20031;-56
2023/09/06 03:16:22;;;;;;;4.07;1.90;;;15.80;99.90;;;;;;5049681;28;20040;-51
2023/09/06 03:18:49;;;;;;;3.55;1.80;;;15.80;99.90;;;;;;5027658;28;20030;-52
2023/09/06 03:21:18;;;;;;;3.28;1.63;;;15.70;99.90;;;;;;5024439;28;20038;-52
2023/09/06 03:23:45;;;;;;;3.67;1.77;;;15.70;99.90;;;;;;5023631;28;20025;-51
2023/09/06 03:26:14;;;;;;;5.82;1.65;;;15.70;99.90;;;;;;5024903;28;20025;-50
2023/09/06 03:28:40;;;;;;;2.65;1.55;;;15.70;99.90;;;;;;5024503;28;20123;-52
2023/09/06 03:31:12;;;;;;;5.43;1.75;;;15.60;99.90;;;;;;5024356;28;20490;-51
2023/09/06 03:33:39;;;;;;;4.70;1.67;;;15.60;99.90;;;;;;5041688;28;20022;-50
2023/09/06 03:36:09;;;;;;;4.35;1.80;;;15.60;99.90;;;;;;5024304;28;20030;-51
2023/09/06 03:38:39;;;;;;;2.80;1.50;;;15.50;99.90;;;;;;5023899;28;20048;-50
2023/09/06 03:41:07;;;;;;;3.30;1.77;;;15.50;99.90;;;;;;5022823;28;20063;-52
2023/09/06 03:43:33;;;;;;;3.17;1.55;;;15.50;99.90;;;;;;5040910;28;20025;-51
2023/09/06 03:46:04;;;;;;;2.90;1.63;;;15.50;99.90;;;;;;5022998;28;20043;-52
2023/09/06 03:48:30;;;;;;;3.47;1.80;;;15.50;99.90;;;;;;5023488;28;20025;-54
2023/09/06 03:50:59;;;;;;;4.70;1.67;;;15.50;99.90;;;;;;5022674;28;20120;-52
2023/09/06 03:53:25;;;;;;;;;;;15.50;99.90;;;;;;5040888;28;20041;-53
2023/09/06 03:55:57;;;;;;;3.30;1.48;;;15.50;99.90;;;;;;5022646;28;19909;-52
2023/09/06 03:58:24;;;;;;;4.88;1.45;;;15.50;99.90;;;;;;5022773;28;20034;-51
2023/09/06 04:00:52;;;;;;;4.20;1.90;;;15.60;99.90;;;;;;5022202;28;20033;-50
2023/09/06 04:03:30;;;;;;;4.90;1.95;;;15.60;99.90;;;;;;5007689;28;20025;-51
2023/09/06 04:05:57;;;;;;;3.33;1.90;;;15.60;99.90;;;;;;5022331;28;20029;-52
2023/09/06 04:08:28;;;;;;;2.90;1.63;;;15.50;99.90;;;;;;5022629;28;20026;-53
2023/09/06 04:10:55;;;;;;;3.55;1.80;;;15.60;99.90;;;;;;5022127;28;20033;-52
2023/09/06 04:13:21;;;;;;;4.50;2.03;;;15.60;99.90;;;;;;5021928;28;20037;-52
2023/09/06 04:15:48;;;;;;;4.25;2.05;;;15.60;99.90;;;;;;5021842;28;20501;-54
2023/09/06 04:18:14;;;;;;;3.40;1.90;;;15.60;99.90;;;;;;5021501;28;20025;-53
2023/09/06 04:20:44;;;;;;;4.32;2.05;;;15.60;99.90;;;;;;5005572;28;20091;-55
2023/09/06 04:23:13;;;;;;;2.50;1.38;;;15.60;99.90;;;;;;5021390;28;20064;-55
2023/09/06 04:25:41;;;;;;;3.38;1.98;;;15.70;99.90;;;;;;5020855;28;20033;-52
2023/09/06 04:28:09;;;;;;;;;;;15.70;99.90;;;;;;5005290;28;20080;-53
2023/09/06 04:30:37;;;;;;;5.68;1.42;;;15.70;99.90;;;;;;5021255;28;20038;-51
2023/09/06 04:33:05;;;;;;;3.13;1.80;;;15.70;99.90;;;;;;5004540;28;20555;-52
2023/09/06 04:35:38;;;;;;;;;;;15.70;99.90;;;;;;5005448;28;20029;-51
2023/09/06 04:38:05;;;;;;;3.15;1.98;;;15.80;99.90;;;;;;5020502;28;19916;-53
2023/09/06 04:40:31;;;;;;;6.32;1.90;;;15.80;99.90;;;;;;5020990;28;20041;-54
2023/09/06 04:42:57;;;;;;;3.55;2.00;;;15.80;99.90;;;;;;5019632;28;20117;-54
2023/09/06 04:45:22;;;;;;;3.40;2.00;;;15.80;99.90;;;;;;5020161;28;20041;-55
2023/09/06 04:47:49;;;;;;;4.35;2.10;;;15.90;99.90;;;;;;5020252;28;20028;-51
2023/09/06 04:50:14;;;;;;;4.78;2.47;;;15.90;99.90;;;;;;5020473;28;20052;-53
2023/09/06 04:52:46;;;;;;;5.07;2.53;;;15.90;99.90;;;;;;5020520;28;20033;-56
2023/09/06 04:55:13;;;;;;;4.57;2.30;;;16.00;99.90;;;;;;5020415;28;20494;-56
2023/09/06 04:57:45;;;;;;;4.03;2.13;;;16.00;99.90;;;;;;5020446;28;20136;-52
2023/09/06 05:00:23;;;;;;;6.85;2.00;;;16.00;99.90;;;;;;5020892;28;20034;-52
2023/09/06 05:02:50;;;;;;;4.13;1.67;;;16.00;99.90;;;;;;5038732;28;20494;-50
2023/09/06 05:05:16;;;;;;;4.43;1.90;;;16.10;99.90;;;;;;5020300;28;20395;-51
2023/09/06 05:07:42;;;;;;;4.07;2.05;;;16.10;99.90;;;;;;5021060;28;20033;-52
2023/09/06 05:10:09;;;;;;;3.78;1.98;;;16.10;99.90;;;;;;5020141;28;20399;-51
2023/09/06 05:12:36;;;;;;;5.85;2.20;;;16.10;99.90;;;;;;5020270;28;20044;-55
2023/09/06 05:15:02;;;;;;;5.10;2.35;;;16.20;99.90;;;;;;5019869;28;20037;-50
2023/09/06 05:17:28;;;;;;;3.88;1.98;;;16.20;99.90;;;;;;5020257;28;20041;-52
2023/09/06 05:19:54;;;;;;;3.70;1.95;;;16.20;99.90;;;;;;5003339;28;20035;-51
2023/09/06 05:22:22;;;;;;;4.00;2.00;;;16.20;99.90;;;;;;5020385;28;20043;-53
2023/09/06 05:24:49;;;;;;;4.55;2.33;;;16.20;99.90;;;;;;5020372;28;20029;-52
2023/09/06 05:27:17;;;;;;;4.95;2.40;;;16.20;99.90;;;;;;5020092;28;20038;-53
2023/09/06 05:29:43;;;;;;;4.22;2.00;;;16.20;99.90;;;;;;5020390;28;20473;-55
2023/09/06 05:32:11;;;;;;;4.63;2.30;;;16.20;99.90;;;;;;5019593;28;20061;-54
2023/09/06 05:34:37;;;;;;;5.10;2.00;;;16.20;99.90;;;;;;5019756;28;20029;-54
2023/09/06 05:37:05;;;;;;;8.02;2.85;;;16.20;99.90;;;;;;5019190;28;20025;-51
2023/09/06 05:39:31;;;;;;;4.95;2.30;;;16.30;99.90;;;;;;5020017;28;20132;-53
2023/09/06 05:41:57;;;;;;;4.80;2.47;;;16.30;99.90;;;;;;5018898;28;20033;-51
2023/09/06 05:44:22;;;;;;;4.95;2.67;;;16.30;99.90;;;;;;5019284;28;20033;-54
2023/09/06 05:46:48;;;;;;;5.22;2.55;;;16.40;99.90;;;;;;5037446;28;20104;-53
2023/09/06 05:49:14;;;;;;;4.63;2.35;;;16.40;99.90;;;;;;5036538;28;20021;-52
2023/09/06 05:51:43;;;;;;;5.50;2.65;;;16.50;99.90;;;;;;5018986;28;20030;-53
2023/09/06 05:54:10;;;;;;;6.70;2.92;;;16.50;99.90;;;;;;5018658;28;20099;-55
2023/09/06 05:56:37;;;;;;;5.18;2.95;;;16.50;99.90;;;;;;5002783;28;20037;-54
2023/09/06 05:59:03;;;;;;;6.03;3.58;;;16.50;99.90;;;;;;5019387;28;20166;-52
2023/09/06 06:01:29;;;;;;;6.72;2.95;;;16.60;99.90;;;;;;5018316;28;20057;-56
2023/09/06 06:03:55;;;;;;;8.30;3.17;;;16.70;99.90;;;;;;5002352;28;20025;-54
2023/09/06 06:06:22;;;;;;;9.95;3.10;;;16.70;99.90;;;;;;5019126;28;20049;-53
2023/09/06 06:08:48;;;;;;;7.15;3.20;;;16.80;99.90;;;;;;5018871;28;20432;-54
2023/09/06 06:11:13;;;;;;;5.25;3.15;;;16.80;99.90;;;;;;5036049;28;20080;-55
2023/09/06 06:13:39;;;;;;;5.47;3.20;;;16.90;99.90;;;;;;5018036;28;20037;-54
2023/09/06 06:16:06;;;;;;;7.03;3.00;;;17.00;99.90;;;;;;5035841;28;20060;-53
2023/09/06 06:18:32;;;;;;;6.20;3.00;;;17.10;99.90;;;;;;5036413;28;20052;-54
2023/09/06 06:20:58;;;;;;;3.60;2.15;;;17.20;99.90;;;;;;5036110;28;20036;-52
2023/09/06 06:23:24;;;;;;;5.18;2.50;;;17.40;99.90;;;;;;5035706;28;20121;-54
2023/09/06 06:25:50;;;;;;;3.22;1.92;;;17.60;99.90;;;;;;5035514;28;20032;-51
2023/09/06 06:28:15;;;;;;;4.82;2.75;;;17.80;99.90;;;;;;5036105;28;20025;-54
2023/09/06 06:30:41;;;;;;;4.57;2.35;;;18.00;99.90;;;;;;5035421;28;20021;-49
2023/09/06 06:33:07;;;;;;;5.18;2.35;;;18.10;99.90;;;;;;5017282;28;20033;-52
2023/09/06 06:35:33;;;;;;;37.28;18.52;;;18.40;99.90;;;;;;5035855;28;20045;-49
2023/09/06 06:37:58;;;;;;;27.23;13.13;;;18.80;99.90;;;;;;5019300;28;20038;-52
2023/09/06 06:40:26;;;;;;;21.70;10.15;;;19.00;99.90;;;;;;5036468;28;20154;-53
2023/09/06 06:42:51;;;;;;;4.65;2.50;;;19.10;99.90;;;;;;5035227;28;20099;-50
2023/09/06 06:45:18;;;;;;;5.38;2.20;;;19.20;99.90;;;;;;5019277;28;20071;-53
2023/09/06 06:47:44;;;;;;;4.65;2.08;;;19.30;99.90;;;;;;5018803;28;20033;-54
2023/09/06 06:50:10;;;;;;;13.00;7.25;;;19.50;99.90;;;;;;5016965;28;20037;-53
2023/09/06 06:52:36;;;;;;;18.10;8.50;;;19.60;99.90;;;;;;5035816;28;20034;-54
2023/09/06 06:55:03;;;;;;;8.55;4.30;;;19.70;99.90;;;;;;5036480;28;20025;-54
2023/09/06 06:57:30;;;;;;;8.63;4.18;;;19.80;99.90;;;;;;5035640;28;20041;-51
2023/09/06 06:59:56;;;;;;;4.45;2.38;;;19.90;99.90;;;;;;5036116;28;20441;-54
2023/09/06 07:02:21;;;;;;;4.88;2.20;;;20.00;99.90;;;;;;5035717;28;20033;-53
2023/09/06 07:04:48;;;;;;;10.32;5.43;;;20.20;99.90;;;;;;5035502;28;20434;-55
2023/09/06 07:07:13;;;;;;;4.97;2.72;;;20.30;99.90;;;;;;5035650;28;20026;-54
2023/09/06 07:09:39;;;;;;;10.57;5.40;;;20.50;99.90;;;;;;5018079;28;20541;-52
2023/09/06 07:12:05;;;;;;;7.28;3.92;;;20.60;99.90;;;;;;5035898;28;20505;-53
2023/09/06 07:14:30;;;;;;;6.28;2.30;;;20.90;99.90;;;;;;5017907;28;20459;-52
2023/09/06 07:16:56;;;;;;;4.38;2.08;;;21.00;99.90;;;;;;5018299;28;20113;-53
2023/09/06 07:19:22;;;;;;;10.35;4.38;;;21.10;99.90;;;;;;5017482;28;20037;-53
2023/09/06 07:21:48;;;;;;;7.15;2.85;;;21.30;99.90;;;;;;5035096;28;20022;-54
2023/09/06 07:24:14;;;;;;;4.88;2.58;;;21.50;99.90;;;;;;5035043;28;20090;-53
2023/09/06 07:26:40;;;;;;;6.63;2.00;;;21.60;99.90;;;;;;5035564;28;20088;-53
2023/09/06 07:29:06;;;;;;;4.70;2.25;;;21.60;99.90;;;;;;5036081;28;20107;-54
2023/09/06 07:31:39;;;;;;;7.82;3.08;;;21.70;99.90;;;;;;5035750;28;20490;-54
2023/09/06 07:34:04;;;;;;;12.85;5.57;;;21.80;99.90;;;;;;5035854;28;20030;-53
2023/09/06 07:36:30;;;;;;;4.45;2.67;;;21.90;99.90;;;;;;5035645;28;20032;-53
2023/09/06 07:38:57;;;;;;;5.22;1.83;;;21.90;99.90;;;;;;5035302;28;20025;-55
2023/09/06 07:41:22;;;;;;;20.45;7.35;;;22.10;99.90;;;;;;5017842;28;20052;-54
2023/09/06 07:43:48;;;;;;;7.55;2.70;;;22.30;99.90;;;;;;5035740;28;20034;-52
2023/09/06 07:46:14;;;;;;;3.60;1.70;;;22.40;99.90;;;;;;5035190;28;20021;-52
2023/09/06 07:48:39;;;;;;;6.55;2.40;;;22.50;99.90;;;;;;5035443;28;20030;-51
2023/09/06 07:51:05;;;;;;;5.03;2.30;;;22.60;99.90;;;;;;5035421;28;20089;-52
2023/09/06 07:53:31;;;;;;;5.63;2.25;;;22.90;99.90;;;;;;5035049;28;20029;-55
2023/09/06 07:55:57;;;;;;;5.97;2.60;;;22.90;99.90;;;;;;5035792;28;20056;-52
2023/09/06 07:58:23;;;;;;;5.50;2.13;;;22.90;99.90;;;;;;5035484;28;20138;-54
2023/09/06 08:00:50;;;;;;;4.65;2.00;;;23.00;99.90;;;;;;5036608;28;20064;-54
2023/09/06 08:03:16;;;;;;;4.18;2.00;;;22.90;99.90;;;;;;5038731;28;20049;-51
2023/09/06 08:05:41;;;;;;;6.43;3.45;;;23.00;99.90;;;;;;5039389;28;20466;-55
2023/09/06 08:08:09;;;;;;;3.83;2.13;;;23.30;99.90;;;;;;5038888;28;20028;-54
2023/09/06 08:10:36;;;;;;;10.82;4.78;;;23.40;99.90;;;;;;5038700;28;20037;-54
2023/09/06 08:13:03;;;;;;;7.85;3.67;;;23.50;99.90;;;;;;5038489;28;20041;-55
2023/09/06 08:15:30;;;;;;;6.03;2.67;;;23.60;99.90;;;;;;5021171;28;20029;-52
2023/09/06 08:17:56;;;;;;;4.60;1.90;;;23.90;99.90;;;;;;5038362;28;20048;-54
2023/09/06 08:20:22;;;;;;;3.78;2.25;;;24.00;99.90;;;;;;5037975;28;20029;-53
2023/09/06 08:22:47;;;;;;;3.05;1.55;;;24.20;99.90;;;;;;5037745;28;20112;-55
2023/09/06 08:25:17;;;;;;;3.22;1.88;;;24.40;99.90;;;;;;5038442;28;20029;-53
2023/09/06 08:27:43;;;;;;;5.93;1.88;;;24.50;99.90;;;;;;5037547;28;20044;-55
2023/09/06 08:30:11;;;;;;;4.03;2.10;;;24.70;99.90;;;;;;5038660;28;20018;-54
2023/09/06 08:32:38;;;;;;;3.23;1.83;;;24.70;99.90;;;;;;5038025;28;20033;-55
2023/09/06 08:35:04;;;;;;;4.03;1.88;;;24.70;99.90;;;;;;5038126;28;20037;-55
2023/09/06 08:37:30;;;;;;;5.43;2.10;;;24.80;99.90;;;;;;5037907;28;20036;-55
2023/09/06 08:39:56;;;;;;;3.17;1.90;;;25.00;99.90;;;;;;5037622;28;20486;-54
2023/09/06 08:42:23;;;;;;;3.45;1.90;;;25.10;99.90;;;;;;5037924;28;20044;-55
2023/09/06 08:44:49;;;;;;;5.85;2.10;;;25.10;99.90;;;;;;5038248;28;20021;-55
2023/09/06 08:47:18;;;;;;;3.50;1.80;;;25.20;99.90;;;;;;5037960;28;20037;-54
2023/09/06 08:49:47;;;;;;;3.60;1.90;;;25.30;99.90;;;;;;5037106;28;20024;-54
2023/09/06 08:52:14;;;;;;;7.28;2.72;;;25.40;99.90;;;;;;5037253;28;20489;-52
2023/09/06 08:54:53;;;;;;;6.18;2.88;;;25.50;99.90;;;;;;5019458;28;20036;-55
2023/09/06 08:57:20;;;;;;;6.97;2.20;;;25.60;99.90;;;;;;5037122;28;20536;-54
2023/09/06 08:59:49;;;;;;;3.78;1.90;;;25.90;99.90;;;;;;5037252;28;20037;-53
2023/09/06 09:02:16;;;;;;;4.95;2.45;;;25.90;99.90;;;;;;5037317;28;20156;-51
2023/09/06 09:04:42;;;;;;;3.00;1.90;;;25.90;99.90;;;;;;5019757;28;20040;-54
2023/09/06 09:07:13;;;;;;;6.45;2.85;;;26.00;99.10;;;;;;5037435;28;20029;-52
2023/09/06 09:09:59;;;;;;;5.32;2.75;;;26.10;99.50;;;;;;5037270;28;20033;-56
2023/09/06 09:12:26;;;;;;;3.83;1.90;;;26.10;99.90;;;;;;5036309;28;20056;-54
2023/09/06 09:14:54;;;;;;;3.53;2.35;;;26.30;98.30;;;;;;5037659;28;20029;-56
2023/09/06 09:17:23;;;;;;;4.63;2.03;;;26.40;98.40;;;;;;5019189;28;20037;-54
2023/09/06 09:19:54;;;;;;;6.03;2.50;;;26.50;99.70;;;;;;5037036;28;20029;-53
2023/09/06 09:22:31;;;;;;;3.60;2.15;;;26.60;99.90;;;;;;5036795;28;20156;-54
2023/09/06 09:25:14;;;;;;;5.20;2.58;;;26.70;99.90;;;;;;5019783;28;20034;-56
2023/09/06 09:27:44;;;;;;;3.33;1.63;;;26.70;98.30;;;;;;5037345;28;20029;-53
2023/09/06 09:30:16;;;;;;;3.50;1.83;;;26.70;98.10;;;;;;5036647;28;20383;-55
2023/09/06 09:32:42;;;;;;;3.30;2.03;;;26.80;96.00;;;;;;5036080;28;20033;-53
2023/09/06 09:35:12;;;;;;;5.70;2.25;;;26.90;95.90;;;;;;5019737;28;20401;-54
2023/09/06 09:37:42;;;;;;;3.45;1.90;;;26.90;95.60;;;;;;5036348;28;20033;-54
2023/09/06 09:40:18;;;;;;;3.58;2.10;;;27.10;95.40;;;;;;5036595;28;20025;-55
2023/09/06 09:42:57;;;;;;;4.22;2.10;;;27.10;95.90;;;;;;5035930;28;20033;-54
2023/09/06 09:45:30;;;;;;;3.00;1.98;;;27.10;94.60;;;;;;5036518;28;20313;-55
2023/09/06 09:47:57;;;;;;;4.15;2.00;;;27.30;95.60;;;;;;5036136;28;20032;-55
2023/09/06 09:50:25;;;;;;;4.70;2.10;;;27.50;94.90;;;;;;5036119;28;20029;-54
2023/09/06 09:52:52;;;;;;;;;;;27.60;93.00;;;;;;5037374;28;20048;-54
2023/09/06 09:55:20;;;;;;;3.35;1.95;;;27.70;94.00;;;;;;5036763;28;20274;-54
2023/09/06 09:57:46;;;;;;;3.38;1.73;;;28.00;94.20;;;;;;5036393;28;20038;-55
2023/09/06 10:00:15;;;;;;;4.07;2.00;;;28.40;93.50;;;;;;5036015;28;20036;-54
2023/09/06 10:02:43;;;;;;;4.05;2.00;;;28.40;91.80;;;;;;5036254;28;20037;-53
2023/09/06 10:05:19;;;;;;;3.60;2.08;;;28.40;92.50;;;;;;5036304;28;20538;-51
2023/09/06 10:07:47;;;;;;;3.42;1.88;;;28.50;92.00;;;;;;5036723;28;20079;-52
2023/09/06 10:10:13;;;;;;;4.53;1.92;;;28.70;90.90;;;;;;5036358;28;20030;-54
2023/09/06 10:12:45;;;;;;;4.13;2.10;;;28.90;91.10;;;;;;5018357;28;20379;-55
2023/09/06 10:15:15;;;;;;;5.40;2.03;;;29.00;90.10;;;;;;5036127;28;20437;-51
2023/09/06 10:17:42;;;;;;;3.33;2.00;;;29.10;90.40;;;;;;5036578;28;20473;-54
2023/09/06 10:20:15;;;;;;;4.85;2.30;;;29.20;87.10;;;;;;5035794;28;20036;-53
2023/09/06 10:22:46;;;;;;;5.18;2.33;;;29.30;85.60;;;;;;5036335;28;20434;-54
2023/09/06 10:25:15;;;;;;;4.50;2.35;;;29.20;88.00;;;;;;5035877;28;20033;-53
2023/09/06 10:27:48;;;;;;;4.18;2.03;;;29.30;87.30;;;;;;5035926;28;20040;-54
2023/09/06 10:30:18;;;;;;;3.88;2.20;;;29.50;85.40;;;;;;5035991;28;20036;-52
2023/09/06 10:32:46;;;;;;;4.55;2.17;;;29.60;85.00;;;;;;5034770;28;20037;-54
2023/09/06 10:35:30;;;;;;;3.20;2.22;;;29.70;83.00;;;;;;5036194;28;20466;-51
2023/09/06 10:38:04;;;;;;;4.53;2.00;;;29.90;83.30;;;;;;5036043;28;20541;-52
2023/09/06 10:40:50;;;;;;;3.88;2.13;;;30.20;81.20;;;;;;5034921;28;20025;-54
2023/09/06 10:43:20;;;;;;;3.15;2.10;;;30.40;83.10;;;;;;5034756;28;20026;-55
2023/09/06 10:45:55;;;;;;;3.38;2.30;;;30.60;81.50;;;;;;5035582;28;20036;-55
2023/09/06 10:48:22;;;;;;;4.30;2.10;;;30.60;78.50;;;;;;5035796;28;20040;-54
2023/09/06 10:51:07;;;;;;;5.00;2.15;;;30.50;78.00;;;;;;5035003;28;20025;-55
2023/09/06 10:53:40;;;;;;;5.47;2.15;;;30.40;80.00;;;;;;5035708;28;20045;-54
2023/09/06 10:56:07;;;;;;;3.75;2.20;;;30.40;79.70;;;;;;5018484;28;20042;-55
2023/09/06 10:58:37;;;;;;;3.58;2.03;;;30.30;78.10;;;;;;5036034;28;20060;-52
2023/09/06 11:01:18;;;;;;;3.72;1.80;;;30.10;77.80;;;;;;5017575;28;20034;-54
2023/09/06 11:03:54;;;;;;;3.55;2.03;;;30.00;81.00;;;;;;5035407;28;20033;-54
2023/09/06 11:06:19;;;;;;;3.88;2.33;;;30.00;79.40;;;;;;5036181;28;20033;-56
2023/09/06 11:08:47;;;;;;;3.70;2.05;;;30.00;77.20;;;;;;5035128;28;20039;-51
2023/09/06 11:11:14;;;;;;;3.72;2.38;;;29.90;78.40;;;;;;5035667;28;20034;-55
2023/09/06 11:13:42;;;;;;;3.35;1.90;;;29.90;75.30;;;;;;5017517;28;20094;-52
2023/09/06 11:16:15;;;;;;;2.65;1.67;;;29.90;75.70;;;;;;5035697;28;20061;-51
2023/09/06 11:18:48;;;;;;;3.80;2.10;;;29.90;76.70;;;;;;5035023;28;20414;-49
2023/09/06 11:21:18;;;;;;;3.00;1.70;;;29.80;76.80;;;;;;5034874;28;20026;-50
2023/09/06 11:23:48;;;;;;;3.40;1.98;;;29.70;77.10;;;;;;5035573;28;20049;-50
2023/09/06 11:26:14;;;;;;;4.32;2.20;;;29.70;78.90;;;;;;5035449;28;20033;-52
2023/09/06 11:28:42;;;;;;;3.88;2.00;;;29.70;76.50;;;;;;5017717;28;20129;-51
2023/09/06 11:31:24;;;;;;;2.92;1.80;;;29.70;77.10;;;;;;5035146;28;20033;-49
2023/09/06 11:34:04;;;;;;;4.47;2.10;;;29.70;76.70;;;;;;5034692;28;20079;-53
2023/09/06 11:36:32;;;;;;;5.13;2.80;;;29.70;76.90;;;;;;5020276;28;20061;-50
2023/09/06 11:39:18;;;;;;;2.75;1.70;;;29.80;77.00;;;;;;5039005;28;20033;-51
2023/09/06 11:41:44;;;;;;;2.17;1.55;;;29.90;74.50;;;;;;5038094;28;20038;-53
2023/09/06 11:44:14;;;;;;;3.42;1.92;;;29.80;74.80;;;;;;5038686;28;20051;-51
2023/09/06 11:46:43;;;;;;;3.78;2.05;;;29.80;74.20;;;;;;5038900;28;20119;-50
2023/09/06 11:49:09;;;;;;;3.95;1.77;;;30.00;74.00;;;;;;5038753;28;20081;-52
2023/09/06 11:51:35;;;;;;;5.07;1.98;;;30.00;75.00;;;;;;5037951;28;20421;-50
2023/09/06 11:54:03;;;;;;;4.05;1.85;;;30.00;73.30;;;;;;5037519;28;20034;-52
2023/09/06 11:56:36;;;;;;;4.57;2.17;;;30.10;74.00;;;;;;5019383;28;20417;-55
2023/09/06 11:59:06;;;;;;;4.78;2.03;;;30.10;74.40;;;;;;5036542;28;20061;-54
2023/09/06 12:01:39;;;;;;;4.18;2.20;;;30.30;73.90;;;;;;5036340;28;20079;-50
2023/09/06 12:04:10;;;;;;;3.50;1.88;;;30.50;72.40;;;;;;5036699;28;20052;-55
2023/09/06 12:06:39;;;;;;;3.47;1.80;;;30.60;74.00;;;;;;5019899;28;20037;-55
2023/09/06 12:09:12;;;;;;;5.35;2.10;;;30.70;70.70;;;;;;5038624;28;20029;-51
2023/09/06 12:11:38;;;;;;;3.42;1.70;;;30.70;70.40;;;;;;5037725;28;20037;-54
2023/09/06 12:14:04;;;;;;;3.33;1.85;;;30.60;69.30;;;;;;5038647;28;20036;-54
2023/09/06 12:16:31;;;;;;;2.30;1.60;;;30.40;70.50;;;;;;5038195;28;20414;-53
2023/09/06 12:18:56;;;;;;;3.60;2.13;;;30.30;70.20;;;;;;5038636;28;20382;-52
2023/09/06 12:21:22;;;;;;;3.30;2.10;;;30.20;72.70;;;;;;5020303;28;20026;-53
2023/09/06 12:23:47;;;;;;;4.05;2.00;;;30.20;71.80;;;;;;5020275;28;20038;-52
2023/09/06 12:26:16;;;;;;;3.55;1.98;;;30.30;68.20;;;;;;5038356;28;20029;-53
2023/09/06 12:28:42;;;;;;;3.38;1.88;;;30.50;68.90;;;;;;5038197;28;20331;-54
2023/09/06 12:31:07;;;;;;;2.85;1.85;;;30.50;69.40;;;;;;5037804;28;20064;-55
2023/09/06 12:33:33;;;;;;;8.32;4.43;;;30.40;68.40;;;;;;5019999;28;20038;-53
2023/09/06 12:36:00;;;;;;;6.50;3.30;;;30.60;70.50;;;;;;5020811;28;20128;-50
2023/09/06 12:38:27;;;;;;;6.43;3.70;;;30.70;70.50;;;;;;5037809;28;20100;-55
2023/09/06 12:40:52;;;;;;;6.18;3.53;;;30.80;70.90;;;;;;5037946;28;20065;-55
2023/09/06 12:43:20;;;;;;;5.13;3.15;;;30.90;72.40;;;;;;5037411;28;20034;-53
2023/09/06 12:45:47;;;;;;;3.70;2.03;;;30.90;71.40;;;;;;5020254;28;20083;-53
2023/09/06 12:48:13;;;;;;;3.33;2.00;;;30.90;70.00;;;;;;5036011;28;20037;-55
2023/09/06 12:50:39;;;;;;;3.00;1.90;;;31.00;70.10;;;;;;5037364;28;20057;-52
2023/09/06 12:53:07;;;;;;;5.25;2.13;;;30.90;69.90;;;;;;5037258;28;20034;-53